createdAt,value
2018-10-11T00:01:53.626Z,25.63
2018-10-11T00:04:22.249Z,24.67
2018-10-11T00:06:50.807Z,24.90
2018-10-11T00:09:19.374Z,25.00
2018-10-11T00:11:47.985Z,24.57
2018-10-11T00:14:16.563Z,24.70
2018-10-11T00:16:45.183Z,23.73
2018-10-11T00:19:13.801Z,26.97
2018-10-11T00:21:42.277Z,27.13
2018-10-11T00:24:10.766Z,24.87
2018-10-11T00:26:39.296Z,24.87
2018-10-11T00:29:07.614Z,24.53
2018-10-11T00:31:36.066Z,24.63
2018-10-11T00:34:04.566Z,25.37
2018-10-11T00:36:33.180Z,25.30
2018-10-11T00:39:02.128Z,25.37
2018-10-11T00:41:30.534Z,22.67
2018-10-11T00:43:59.131Z,23.57
2018-10-11T00:46:27.754Z,23.97
2018-10-11T00:48:56.480Z,24.23
2018-10-11T00:51:26.079Z,23.70
2018-10-11T00:53:54.597Z,24.37
2018-10-11T00:56:23.156Z,24.80
2018-10-11T00:58:52.394Z,23.17
2018-10-11T01:01:20.970Z,23.20
2018-10-11T01:03:49.475Z,22.90
2018-10-11T01:06:17.959Z,24.63
2018-10-11T01:08:46.503Z,23.10
2018-10-11T01:11:15.068Z,26.20
2018-10-11T01:13:43.964Z,26.30
2018-10-11T01:16:12.599Z,24.67
2018-10-11T01:18:41.134Z,23.13
2018-10-11T01:21:09.842Z,24.80
2018-10-11T01:23:39.206Z,26.33
2018-10-11T01:26:07.823Z,25.10
2018-10-11T01:28:36.289Z,25.00
2018-10-11T01:31:10.273Z,25.47
2018-10-11T01:33:38.754Z,24.37
2018-10-11T01:36:07.396Z,26.03
2018-10-11T01:38:36.133Z,25.67
2018-10-11T01:41:04.693Z,26.90
2018-10-11T01:43:33.108Z,26.13
2018-10-11T01:46:01.550Z,25.17
2018-10-11T01:48:30.173Z,25.80
2018-10-11T01:50:58.831Z,24.93
2018-10-11T01:53:27.333Z,26.33
2018-10-11T01:55:55.761Z,26.40
2018-10-11T01:58:24.213Z,25.90
2018-10-11T02:00:52.745Z,25.37
2018-10-11T02:03:21.094Z,24.83
2018-10-11T02:05:49.605Z,26.20
2018-10-11T02:08:18.146Z,26.53
2018-10-11T02:10:46.638Z,24.67
2018-10-11T02:13:15.088Z,27.30
2018-10-11T02:15:43.497Z,26.43
2018-10-11T02:18:12.213Z,25.03
2018-10-11T02:20:40.497Z,25.43
2018-10-11T02:23:08.918Z,26.83
2018-10-11T02:25:37.880Z,26.30
2018-10-11T02:28:07.266Z,24.40
2018-10-11T02:30:35.787Z,24.73
2018-10-11T02:33:04.291Z,24.80
2018-10-11T02:35:32.868Z,25.97
2018-10-11T02:38:01.421Z,24.60
2018-10-11T02:40:31.468Z,25.77
2018-10-11T02:42:59.707Z,25.87
2018-10-11T02:45:27.956Z,24.27
2018-10-11T02:47:56.165Z,25.10
2018-10-11T02:50:24.462Z,25.20
2018-10-11T02:52:52.652Z,24.50
2018-10-11T02:55:22.832Z,26.43
2018-10-11T02:58:02.813Z,25.30
2018-10-11T03:00:31.729Z,24.70
2018-10-11T03:03:01.860Z,24.03
2018-10-11T03:05:31.205Z,25.80
2018-10-11T03:07:59.853Z,25.67
2018-10-11T03:10:28.066Z,25.50
2018-10-11T03:12:56.509Z,25.43
2018-10-11T03:15:24.714Z,26.00
2018-10-11T03:17:52.893Z,25.97
2018-10-11T03:20:21.194Z,27.37
2018-10-11T03:22:49.436Z,25.17
2018-10-11T03:25:17.781Z,28.00
2018-10-11T03:27:45.974Z,26.53
2018-10-11T03:30:14.173Z,27.17
2018-10-11T03:32:42.466Z,25.53
2018-10-11T03:35:10.821Z,26.07
2018-10-11T03:37:38.993Z,25.93
2018-10-11T03:40:07.549Z,27.87
2018-10-11T03:42:35.894Z,26.43
2018-10-11T03:45:04.461Z,27.43
2018-10-11T03:47:32.686Z,27.90
2018-10-11T03:50:00.945Z,28.73
2018-10-11T03:52:29.215Z,28.80
2018-10-11T03:54:57.428Z,27.73
2018-10-11T03:57:26.614Z,26.43
2018-10-11T03:59:54.937Z,25.30
2018-10-11T04:02:23.112Z,26.37
2018-10-11T04:04:51.374Z,26.70
2018-10-11T04:07:19.578Z,27.07
2018-10-11T04:09:47.925Z,28.10
2018-10-11T04:12:16.129Z,27.13
2018-10-11T04:14:44.404Z,28.40
2018-10-11T04:17:12.657Z,27.60
2018-10-11T04:19:40.830Z,27.33
2018-10-11T04:22:09.421Z,27.03
2018-10-11T04:24:37.601Z,30.03
2018-10-11T04:27:05.897Z,29.10
2018-10-11T04:29:34.065Z,29.13
2018-10-11T04:32:02.278Z,32.57
2018-10-11T04:34:30.481Z,29.90
2018-10-11T04:36:58.840Z,29.07
2018-10-11T04:39:27.134Z,30.50
2018-10-11T04:41:55.424Z,28.57
2018-10-11T04:44:23.597Z,32.73
2018-10-11T04:46:51.788Z,30.80
2018-10-11T04:49:20.145Z,28.73
2018-10-11T04:51:48.322Z,30.50
2018-10-11T04:54:16.777Z,28.57
2018-10-11T04:56:44.998Z,29.67
2018-10-11T04:59:13.257Z,29.87
2018-10-11T05:01:41.730Z,28.03
2018-10-11T05:04:10.003Z,27.70
2018-10-11T05:06:38.201Z,29.23
2018-10-11T05:09:07.180Z,29.07
2018-10-11T05:11:35.468Z,30.13
2018-10-11T05:14:03.959Z,29.23
2018-10-11T05:16:32.237Z,27.97
2018-10-11T05:19:04.081Z,29.50
2018-10-11T05:21:32.394Z,29.97
2018-10-11T05:24:00.594Z,29.13
2018-10-11T05:26:28.989Z,30.37
2018-10-11T05:28:58.321Z,30.03
2018-10-11T05:31:27.209Z,30.27
2018-10-11T05:33:55.586Z,31.30
2018-10-11T05:36:24.273Z,33.55
2018-10-11T05:38:52.865Z,30.33
2018-10-11T05:41:21.254Z,30.63
2018-10-11T05:43:51.951Z,28.93
2018-10-11T05:46:28.340Z,28.77
2018-10-11T05:48:57.374Z,29.27
2018-10-11T05:51:25.707Z,27.83
2018-10-11T05:53:55.313Z,29.40
2018-10-11T05:56:24.067Z,29.63
2018-10-11T05:58:52.573Z,29.97
2018-10-11T06:01:21.297Z,30.10
2018-10-11T06:03:50.202Z,31.07
2018-10-11T06:06:18.889Z,29.40
2018-10-11T06:08:47.520Z,29.70
2018-10-11T06:11:16.305Z,28.80
2018-10-11T06:13:46.261Z,29.10
2018-10-11T06:16:15.190Z,28.63
2018-10-11T06:18:44.274Z,29.60
2018-10-11T06:21:12.888Z,29.63
2018-10-11T06:23:41.598Z,29.83
2018-10-11T06:26:10.352Z,30.17
2018-10-11T06:28:38.935Z,29.13
2018-10-11T06:31:07.785Z,27.30
2018-10-11T06:33:36.995Z,28.90
2018-10-11T06:36:05.591Z,28.63
2018-10-11T06:38:34.045Z,29.80
2018-10-11T06:41:02.622Z,31.40
2018-10-11T06:43:31.506Z,33.27
2018-10-11T06:46:00.046Z,34.13
2018-10-11T06:48:28.674Z,34.60
2018-10-11T06:50:57.154Z,34.47
2018-10-11T06:53:25.656Z,35.67
2018-10-11T06:55:54.404Z,33.67
2018-10-11T06:58:22.795Z,36.03
2018-10-11T07:00:51.618Z,35.23
2018-10-11T07:03:20.261Z,33.90
2018-10-11T07:05:48.929Z,33.20
2018-10-11T07:08:17.597Z,35.17
2018-10-11T07:10:46.032Z,33.97
2018-10-11T07:13:14.699Z,35.20
2018-10-11T07:15:43.231Z,34.53
2018-10-11T07:18:11.735Z,34.40
2018-10-11T07:20:40.184Z,35.13
2018-10-11T07:23:08.978Z,33.43
2018-10-11T07:25:38.005Z,33.33
2018-10-11T07:28:06.928Z,33.87
2018-10-11T07:30:35.657Z,33.27
2018-10-11T07:33:04.259Z,34.23
2018-10-11T07:35:33.052Z,32.87
2018-10-11T07:38:01.467Z,33.67
2018-10-11T07:40:30.059Z,33.13
2018-10-11T07:42:58.598Z,33.50
2018-10-11T07:45:27.931Z,32.30
2018-10-11T07:47:57.919Z,31.87
2018-10-11T07:50:26.234Z,30.40
2018-10-11T07:52:54.761Z,29.40
2018-10-11T07:55:23.180Z,30.73
2018-10-11T07:57:51.476Z,31.07
2018-10-11T08:00:19.724Z,29.20
2018-10-11T08:02:48.300Z,28.83
2018-10-11T08:05:16.610Z,29.90
2018-10-11T08:07:45.028Z,30.77
2018-10-11T08:10:13.378Z,30.40
2018-10-11T08:12:42.133Z,28.77
2018-10-11T08:15:11.053Z,29.07
2018-10-11T08:17:39.820Z,28.73
2018-10-11T08:20:07.891Z,29.00
2018-10-11T08:22:36.282Z,28.33
2018-10-11T08:25:05.010Z,27.80
2018-10-11T08:27:33.200Z,27.17
2018-10-11T08:30:01.469Z,27.00
2018-10-11T08:32:30.007Z,26.60
2018-10-11T08:34:58.208Z,26.57
2018-10-11T08:37:26.565Z,24.70
2018-10-11T08:39:54.837Z,26.10
2018-10-11T08:42:23.866Z,26.53
2018-10-11T08:44:52.447Z,25.13
2018-10-11T08:47:28.448Z,25.27
2018-10-11T08:49:57.730Z,25.10
2018-10-11T08:52:30.798Z,25.80
2018-10-11T08:55:00.568Z,24.17
2018-10-11T08:57:29.322Z,25.27
2018-10-11T08:59:57.671Z,24.70
2018-10-11T09:02:26.093Z,25.47
2018-10-11T09:04:54.467Z,26.30
2018-10-11T09:07:22.841Z,24.80
2018-10-11T09:09:53.685Z,25.13
2018-10-11T09:12:19.514Z,25.60
2018-10-11T09:14:47.826Z,25.13
2018-10-11T09:17:16.431Z,24.60
2018-10-11T09:19:44.897Z,26.40
2018-10-11T09:24:50.656Z,24.63
2018-10-11T09:27:20.530Z,24.83
2018-10-11T09:29:49.996Z,26.03
2018-10-11T09:32:18.425Z,25.27
2018-10-11T09:34:48.629Z,25.83
2018-10-11T09:37:17.743Z,24.27
2018-10-11T09:39:46.796Z,24.70
2018-10-11T09:42:15.429Z,23.50
2018-10-11T09:44:44.015Z,22.87
2018-10-11T09:47:12.786Z,22.17
2018-10-11T09:49:41.371Z,20.13
2018-10-11T09:52:10.062Z,20.80
2018-10-11T09:54:38.705Z,18.33
2018-10-11T09:57:14.182Z,19.30
2018-10-11T09:59:46.960Z,18.30
2018-10-11T10:02:26.914Z,20.20
2018-10-11T10:04:57.614Z,18.63
2018-10-11T10:07:26.179Z,17.80
2018-10-11T10:09:54.760Z,17.50
2018-10-11T10:12:29.281Z,15.50
2018-10-11T10:14:57.601Z,15.90
2018-10-11T10:17:26.151Z,14.47
2018-10-11T10:19:54.829Z,14.77
2018-10-11T10:22:33.853Z,13.60
2018-10-11T10:25:08.824Z,14.30
2018-10-11T10:27:37.168Z,13.97
2018-10-11T10:30:15.156Z,14.80
2018-10-11T10:32:50.983Z,13.97
2018-10-11T10:35:29.062Z,14.60
2018-10-11T10:38:10.587Z,12.70
2018-10-11T10:40:39.609Z,13.03
2018-10-11T10:43:16.452Z,13.53
2018-10-11T10:45:45.117Z,14.50
2018-10-11T10:48:14.970Z,15.43
2018-10-11T10:53:38.332Z,14.60
2018-10-11T10:58:49.384Z,14.30
2018-10-11T11:01:19.054Z,12.73
2018-10-11T11:03:47.787Z,14.53
2018-10-11T11:06:17.845Z,14.97
2018-10-11T11:08:46.498Z,13.57
2018-10-11T11:11:16.214Z,15.17
2018-10-11T11:13:44.721Z,14.93
2018-10-11T11:16:15.113Z,13.27
2018-10-11T11:18:43.714Z,13.13
2018-10-11T11:21:12.083Z,11.50
2018-10-11T11:23:40.569Z,10.63
2018-10-11T11:26:08.974Z,9.80
2018-10-11T11:28:39.501Z,10.83
2018-10-11T11:31:08.141Z,11.20
2018-10-11T11:33:36.657Z,9.63
2018-10-11T11:36:05.168Z,9.57
2018-10-11T11:38:39.409Z,7.03
2018-10-11T11:41:07.978Z,6.87
2018-10-11T11:43:37.096Z,7.53
2018-10-11T11:46:05.986Z,6.70
2018-10-11T11:48:34.563Z,5.57
2018-10-11T11:51:03.281Z,6.30
2018-10-11T11:53:31.564Z,5.50
2018-10-11T11:55:59.895Z,4.90
2018-10-11T11:58:28.105Z,4.90
2018-10-11T12:00:56.306Z,4.73
2018-10-11T12:03:24.544Z,5.03
2018-10-11T12:05:52.866Z,4.70
2018-10-11T12:08:21.096Z,5.67
2018-10-11T12:10:49.378Z,5.23
2018-10-11T12:13:17.609Z,5.47
2018-10-11T12:15:46.185Z,5.27
2018-10-11T12:18:14.523Z,5.30
2018-10-11T12:20:43.082Z,4.97
2018-10-11T12:23:12.223Z,5.40
2018-10-11T12:25:40.424Z,4.67
2018-10-11T12:28:08.766Z,4.87
2018-10-11T12:30:36.983Z,5.03
2018-10-11T12:33:05.391Z,5.33
2018-10-11T12:35:33.830Z,5.47
2018-10-11T12:38:02.441Z,4.67
2018-10-11T12:40:30.729Z,4.20
2018-10-11T12:43:00.570Z,4.17
2018-10-11T12:45:28.928Z,3.70
2018-10-11T12:47:57.320Z,4.40
2018-10-11T12:50:25.996Z,4.47
2018-10-11T12:52:54.425Z,4.57
2018-10-11T12:55:22.906Z,4.27
2018-10-11T12:57:51.266Z,5.10
2018-10-11T13:00:19.780Z,4.27
2018-10-11T13:02:49.174Z,4.37
2018-10-11T13:05:18.884Z,4.43
2018-10-11T13:07:47.684Z,4.20
2018-10-11T13:10:16.199Z,4.87
2018-10-11T13:12:52.942Z,6.00
2018-10-11T13:15:21.758Z,5.07
2018-10-11T13:17:51.195Z,5.53
2018-10-11T13:20:19.760Z,5.83
2018-10-11T13:22:48.402Z,6.17
2018-10-11T13:25:16.715Z,5.77
2018-10-11T13:27:45.078Z,5.13
2018-10-11T13:30:13.486Z,5.60
2018-10-11T13:32:41.891Z,5.37
2018-10-11T13:35:12.182Z,5.63
2018-10-11T13:37:40.501Z,5.60
2018-10-11T13:40:09.338Z,5.73
2018-10-11T13:42:37.741Z,5.00
2018-10-11T13:45:06.137Z,5.13
2018-10-11T13:47:39.797Z,4.57
2018-10-11T13:50:03.474Z,4.90
2018-10-11T13:52:32.038Z,5.33
2018-10-11T13:55:02.493Z,5.20
2018-10-11T13:57:31.123Z,5.40
2018-10-11T13:59:57.453Z,5.10
2018-10-11T14:02:27.440Z,4.67
2018-10-11T14:04:59.625Z,5.77
2018-10-11T14:07:28.182Z,5.93
2018-10-11T14:09:57.249Z,4.97
2018-10-11T14:12:28.755Z,5.30
2018-10-11T14:14:57.473Z,5.17
2018-10-11T14:17:31.965Z,5.00
2018-10-11T14:20:00.587Z,5.40
2018-10-11T14:22:36.748Z,4.77
2018-10-11T14:25:10.368Z,4.80
2018-10-11T14:27:38.849Z,5.77
2018-10-11T14:30:20.803Z,5.07
2018-10-11T14:32:49.559Z,4.80
2018-10-11T14:35:18.373Z,5.13
2018-10-11T14:37:53.592Z,4.83
2018-10-11T14:40:32.691Z,4.87
2018-10-11T14:43:08.463Z,5.37
2018-10-11T14:45:36.930Z,5.20
2018-10-11T14:48:08.380Z,5.27
2018-10-11T14:50:37.866Z,5.27
2018-10-11T14:56:07.323Z,5.47
2018-10-11T14:58:35.836Z,5.20
2018-10-11T15:01:04.246Z,5.00
2018-10-11T15:03:32.663Z,5.13
2018-10-11T15:06:01.047Z,5.80
2018-10-11T15:08:29.451Z,5.23
2018-10-11T15:11:00.040Z,5.30
2018-10-11T15:13:28.462Z,5.17
2018-10-11T15:15:57.135Z,5.43
2018-10-11T15:18:26.012Z,4.93
2018-10-11T15:20:54.458Z,5.23
2018-10-11T15:23:22.924Z,5.50
2018-10-11T15:25:51.322Z,5.30
2018-10-11T15:28:19.629Z,5.10
2018-10-11T15:30:48.094Z,5.47
2018-10-11T15:33:16.459Z,5.67
2018-10-11T15:35:44.774Z,5.60
2018-10-11T15:38:17.270Z,6.17
2018-10-11T15:40:48.167Z,5.63
2018-10-11T15:43:17.593Z,5.50
2018-10-11T15:45:46.007Z,5.60
2018-10-11T15:48:14.556Z,6.07
2018-10-11T15:50:49.728Z,5.27
2018-10-11T15:53:18.981Z,5.70
2018-10-11T15:55:47.462Z,5.57
2018-10-11T15:58:15.870Z,6.07
2018-10-11T16:00:44.308Z,6.10
2018-10-11T16:03:18.990Z,5.73
2018-10-11T16:05:47.489Z,6.20
2018-10-11T16:08:15.913Z,5.97
2018-10-11T16:10:44.409Z,5.83
2018-10-11T16:13:12.912Z,8.20
2018-10-11T16:15:41.739Z,8.33
2018-10-11T16:18:11.127Z,8.03
2018-10-11T16:20:55.459Z,8.70
2018-10-11T16:23:23.886Z,6.87
2018-10-11T16:25:52.418Z,6.37
2018-10-11T16:28:20.976Z,6.57
2018-10-11T16:30:49.482Z,6.67
2018-10-11T16:33:17.982Z,6.73
2018-10-11T16:35:46.671Z,7.40
2018-10-11T16:38:15.020Z,7.30
2018-10-11T16:40:43.329Z,6.70
2018-10-11T16:43:11.859Z,7.03
2018-10-11T16:45:40.179Z,6.23
2018-10-11T16:48:08.471Z,6.77
2018-10-11T16:50:36.810Z,6.70
2018-10-11T16:53:05.199Z,6.63
2018-10-11T16:55:33.790Z,6.30
2018-10-11T16:58:02.521Z,7.30
2018-10-11T17:00:30.789Z,7.30
2018-10-11T17:02:59.122Z,7.37
2018-10-11T17:05:27.453Z,7.70
2018-10-11T17:07:55.794Z,7.97
2018-10-11T17:10:24.114Z,6.93
2018-10-11T17:12:52.421Z,6.87
2018-10-11T17:15:20.718Z,7.23
2018-10-11T17:17:49.033Z,7.60
2018-10-11T17:20:17.322Z,7.97
2018-10-11T17:22:45.686Z,7.80
2018-10-11T17:25:14.011Z,8.13
2018-10-11T17:27:42.295Z,7.60
2018-10-11T17:30:10.605Z,7.50
2018-10-11T17:32:38.974Z,8.67
2018-10-11T17:35:07.327Z,8.53
2018-10-11T17:37:35.679Z,8.53
2018-10-11T17:40:03.957Z,7.47
2018-10-11T17:42:32.258Z,8.47
2018-10-11T17:45:00.644Z,8.33
2018-10-11T17:47:28.953Z,7.23
2018-10-11T17:49:57.270Z,8.20
2018-10-11T17:52:25.648Z,7.53
2018-10-11T17:54:55.689Z,8.33
2018-10-11T17:57:24.153Z,7.97
2018-10-11T17:59:52.445Z,7.60
2018-10-11T18:02:21.817Z,7.80
2018-10-11T18:04:51.597Z,9.10
2018-10-11T18:07:19.846Z,9.03
2018-10-11T18:09:48.551Z,8.37
2018-10-11T18:12:16.929Z,8.20
2018-10-11T18:14:45.237Z,8.50
2018-10-11T18:17:13.551Z,9.57
2018-10-11T18:19:43.128Z,9.40
2018-10-11T18:22:11.488Z,9.33
2018-10-11T18:24:39.871Z,8.93
2018-10-11T18:27:08.259Z,9.45
2018-10-11T18:29:37.724Z,9.17
2018-10-11T18:32:06.878Z,9.07
2018-10-11T18:34:35.800Z,10.03
2018-10-11T18:37:04.406Z,10.73
2018-10-11T18:39:33.304Z,11.48
2018-10-11T18:42:02.930Z,11.20
2018-10-11T18:44:31.487Z,11.43
2018-10-11T18:47:00.025Z,9.97
2018-10-11T18:49:35.478Z,10.20
2018-10-11T18:52:04.075Z,10.67
2018-10-11T18:54:32.638Z,11.00
2018-10-11T18:57:01.631Z,10.33
2018-10-11T18:59:30.271Z,10.77
2018-10-11T19:01:59.164Z,11.03
2018-10-11T19:04:29.848Z,10.03
2018-10-11T19:06:58.331Z,9.73
2018-10-11T19:09:26.855Z,10.73
2018-10-11T19:11:55.299Z,10.70
2018-10-11T19:14:24.216Z,11.03
2018-10-11T19:16:53.005Z,13.20
2018-10-11T19:19:21.982Z,11.47
2018-10-11T19:21:50.502Z,11.27
2018-10-11T19:24:19.135Z,11.67
2018-10-11T19:26:47.884Z,11.50
2018-10-11T19:29:18.543Z,11.43
2018-10-11T19:31:47.490Z,13.80
2018-10-11T19:34:16.407Z,13.80
2018-10-11T19:36:46.216Z,13.53
2018-10-11T19:39:15.182Z,12.00
2018-10-11T19:41:44.519Z,13.03
2018-10-11T19:44:13.093Z,11.43
2018-10-11T19:46:44.052Z,13.10
2018-10-11T19:49:13.022Z,10.57
2018-10-11T19:51:41.484Z,11.70
2018-10-11T19:54:10.146Z,11.83
2018-10-11T19:56:38.690Z,12.53
2018-10-11T19:59:07.609Z,13.00
2018-10-11T20:01:37.178Z,12.30
2018-10-11T20:04:05.591Z,13.63
2018-10-11T20:06:34.067Z,12.50
2018-10-11T20:09:02.465Z,13.80
2018-10-11T20:11:30.794Z,14.67
2018-10-11T20:13:59.111Z,15.33
2018-10-11T20:16:27.501Z,14.57
2018-10-11T20:18:56.063Z,15.23
2018-10-11T20:21:26.607Z,14.93
2018-10-11T20:23:57.431Z,13.83
2018-10-11T20:26:25.950Z,14.77
2018-10-11T20:28:55.327Z,15.80
2018-10-11T20:31:24.759Z,15.57
2018-10-11T20:33:53.098Z,15.87
2018-10-11T20:36:22.749Z,16.80
2018-10-11T20:38:52.103Z,15.97
2018-10-11T20:41:20.403Z,15.23
2018-10-11T20:43:50.022Z,15.87
2018-10-11T20:46:18.810Z,15.70
2018-10-11T20:48:47.145Z,16.53
2018-10-11T20:51:16.037Z,16.23
2018-10-11T20:53:45.628Z,16.30
2018-10-11T20:56:14.025Z,15.17
2018-10-11T20:58:42.418Z,15.37
2018-10-11T21:01:10.830Z,16.47
2018-10-11T21:03:39.244Z,15.37
2018-10-11T21:06:07.583Z,17.07
2018-10-11T21:08:35.917Z,16.07
2018-10-11T21:11:04.649Z,16.27
2018-10-11T21:13:33.026Z,15.93
2018-10-11T21:16:02.515Z,15.80
2018-10-11T21:18:30.911Z,16.70
2018-10-11T21:20:59.310Z,16.97
2018-10-11T21:23:29.788Z,16.30
2018-10-11T21:25:58.318Z,17.50
2018-10-11T21:28:26.814Z,17.30
2018-10-11T21:30:57.057Z,18.33
2018-10-11T21:33:25.563Z,17.50
2018-10-11T21:35:53.837Z,18.13
2018-10-11T21:38:22.161Z,17.60
2018-10-11T21:40:50.550Z,17.90
2018-10-11T21:43:21.990Z,17.03
2018-10-11T21:45:50.261Z,16.97
2018-10-11T21:48:18.580Z,17.53
2018-10-11T21:50:46.901Z,16.63
2018-10-11T21:53:15.199Z,16.10
2018-10-11T21:55:43.675Z,17.03
2018-10-11T21:58:12.035Z,16.67
2018-10-11T22:00:45.762Z,16.03
2018-10-11T22:03:14.202Z,16.50
2018-10-11T22:05:42.612Z,15.93
2018-10-11T22:08:11.287Z,17.23
2018-10-11T22:10:39.710Z,16.53
2018-10-11T22:13:08.105Z,16.97
2018-10-11T22:15:36.683Z,17.83
2018-10-11T22:18:05.108Z,15.87
2018-10-11T22:20:33.884Z,16.73
2018-10-11T22:23:02.227Z,16.03
2018-10-11T22:25:30.585Z,17.07
2018-10-11T22:27:59.226Z,17.60
2018-10-11T22:30:27.879Z,17.33
2018-10-11T22:32:56.229Z,17.50
2018-10-11T22:35:24.639Z,17.07
2018-10-11T22:37:57.102Z,18.00
2018-10-11T22:40:26.129Z,17.37
2018-10-11T22:42:54.614Z,17.77
2018-10-11T22:45:28.941Z,17.10
2018-10-11T22:47:57.456Z,18.23
2018-10-11T22:50:27.200Z,16.70
2018-10-11T22:52:56.675Z,18.17
2018-10-11T22:55:25.671Z,17.63
2018-10-11T22:57:54.667Z,17.87
2018-10-11T23:00:23.046Z,16.50
2018-10-11T23:02:51.673Z,17.83
2018-10-11T23:05:20.058Z,17.67
2018-10-11T23:07:48.375Z,18.57
2018-10-11T23:10:16.854Z,18.33
2018-10-11T23:12:45.272Z,19.03
2018-10-11T23:15:13.686Z,18.70
2018-10-11T23:17:42.070Z,17.60
2018-10-11T23:20:11.180Z,17.67
2018-10-11T23:22:41.056Z,17.67
2018-10-11T23:25:09.898Z,18.57
2018-10-11T23:27:38.643Z,17.97
2018-10-11T23:30:07.229Z,16.70
2018-10-11T23:32:35.648Z,17.10
2018-10-11T23:35:04.472Z,19.73
2018-10-11T23:37:32.901Z,17.97
2018-10-11T23:40:01.385Z,16.77
2018-10-11T23:42:29.796Z,17.83
2018-10-11T23:44:58.282Z,17.77
2018-10-11T23:47:26.749Z,17.40
2018-10-11T23:49:55.150Z,18.77
2018-10-11T23:52:23.586Z,17.10
2018-10-11T23:54:52.064Z,16.83
2018-10-11T23:57:20.499Z,17.40
2018-10-11T23:59:48.949Z,19.00
